ADDS METAR Data INFO
IDs: Format: Raw Decoded Include TAF

Data at: 1933 UTC 19 Jul 2018

PHMK 191854Z 04012G20KT 10SM CLR 29/19 A3004 RMK AO2 SLP171 T02890194
PHMK 191754Z 06009KT 10SM CLR 28/18 A3004 RMK AO2 SLP171 T02830183 10283 20244 53009
PHMK 191654Z 06008KT 10SM CLR 26/19 A3002 RMK AO2 SLP168 T02610189
PHMK 191554Z 05009G16KT 10SM CLR 25/19 A3002 RMK AO2 SLP166 T02500194
PHMK 191454Z AUTO 03005KT 10SM CLR 25/19 A3001 RMK AO2 SLP163 T02500194 53004 TSNO
PHMK 191354Z AUTO 04006G14KT 10SM CLR 26/19 A3001 RMK AO2 SLP161 T02560194 TSNO
PHMK 191254Z AUTO 01008KT 10SM CLR 26/19 A2999 RMK AO2 SLP156 T02560194 TSNO
PHMK 191154Z AUTO 00000KT 10SM CLR 26/20 A3000 RMK AO2 SLP158 T02560200 10261 20256 56019 TSNO
PHMK 191054Z AUTO 05014G19KT 10SM CLR 26/21 A3000 RMK AO2 PK WND 05026/1001 SLP159 T02560206 TSNO
PHMK 190954Z AUTO 05018G28KT 10SM CLR 26/21 A3003 RMK AO2 PK WND 04028/0953 SLP168 T02560211 403170244 TSNO
PHMK 190854Z AUTO 04009G22KT 10SM CLR 26/21 A3005 RMK AO2 SLP176 T02560211 50006 TSNO
PHMK 190754Z AUTO 05015G23KT 10SM CLR 26/21 A3006 RMK AO2 SLP178 T02610206 TSNO
PHMK 190654Z AUTO 04014G23KT 10SM CLR 26/21 A3004 RMK AO2 SLP174 T02610206 TSNO
PHMK 190554Z AUTO 05015G25KT 10SM CLR 26/21 A3003 RMK AO2 PK WND 04029/0543 SLP170 T02610211 10306 20261 53017 TSNO
PHMK 190454Z AUTO 04013G26KT 360V060 10SM FEW040 26/22 A3002 RMK AO2 PK WND 05026/0445 SLP165 T02610217 TSNO
PHMK 190354Z 04014G25KT 10SM CLR 27/21 A2999 RMK AO2 SLP157 T02720211
PHMK 190254Z 05014G21KT 10SM CLR 28/21 A2998 RMK AO2 PK WND 05027/0156 SLP153 T02830211 57002
PHMK 190154Z 05015G25KT 10SM CLR 29/21 A2998 RMK AO2 PK WND 05027/0123 SLP153 T02890211
PHMK 190054Z 04017G25KT 10SM SCT030 30/21 A2999 RMK AO2 SLP154 T03000211
PHMK 182354Z COR 04016G25KT 10SM SCT030 29/22 A2999 RMK AO2 PK WND 05028/2317 SLP155 T02890217 10317 20272 56013
PHMK 182254Z 04015G25KT 10SM CLR 31/22 A3000 RMK AO2 SLP158 T03110217
PHMK 182154Z 04014G25KT 10SM CLR 30/22 A3001 RMK AO2 SLP161 T03000217
PHMK 182054Z 04014G21KT 10SM BKN035 BKN043 30/22 A3003 RMK AO2 SLP167 T03000217 58006
PHMK 181954Z 04014G25KT 10SM FEW030 30/22 A3004 RMK AO2 SLP171 T03000222
PHMK 181854Z 04013G22KT 10SM FEW095 28/22 A3003 RMK AO2 SLP171 T02830217
PHMK 181754Z 03009KT 10SM CLR 28/21 A3004 RMK AO2 SLP174 60000 T02830211 10283 20244 53005
PHMK 181654Z 04010KT 10SM FEW030 26/21 A3003 RMK AO2 SLP170 T02610211
PHMK 181554Z 05009G17KT 10SM SCT030 26/21 A3002 RMK AO2 RAB1455E11 SLP166 P0000 T02560211
PHMK 181454Z AUTO 04007KT 9SM FEW023 BKN045 OVC070 26/22 A3003 RMK AO2 SLP169 T02560222 55001 TSNO
PHMK 181354Z AUTO 04011G18KT 10SM BKN041 BKN055 26/22 A3003 RMK AO2 SLP168 T02560222 TSNO
PHMK 181254Z AUTO 04011G17KT 10SM BKN055 26/22 A3003 RMK AO2 SLP169 T02560222 TSNO
PHMK 181154Z AUTO 05013G24KT 10SM BKN060 26/22 A3003 RMK AO2 SLP169 60000 T02560217 10261 20250 58008 TSNO
PHMK 181054Z AUTO 06015G23KT 10SM FEW013 BKN060 25/22 A3004 RMK AO2 SLP173 T02500222 TSNO
PHMK 180954Z AUTO 05016G24KT 10SM SCT050 26/22 A3005 RMK AO2 SLP174 T02560222 403060244 TSNO
PHMK 180854Z AUTO 05014G25KT 10SM FEW045 26/22 A3005 RMK AO2 SLP177 60000 T02610217 51009 TSNO
PHMK 180754Z AUTO 04015G23KT 10SM FEW018 BKN038 OVC046 26/22 A3005 RMK AO2 RAB10E19 SLP177 P0000 T02610222 TSNO